Capitol Logistics 949

Operating for DHL



EGNX
East Midlands Airport
Derby, GB
EGPF
Glasgow International Airport
Glasgow, GB

Activity Log

Date Flight Route Aircraft Duration
12/31/2021 CPX1000 TNT2N TNT N57 POL UN601 RIBEL RIBE1G A30F 0h 57m

Route Details

Aircraft Information
Group: European Fleet
Types: A30F,A31F,B738
Route Data
Demand: M
Distance: 213nm
Duration: 1h 14m
Recm'd Route: TNT2N TNT N57 POL UN601 RIBEL RIBE1G
Origin Wx: EGNX 242050Z 23008KT 9999 FEW047 12/06 Q1009
Dest. Wx: EGPF 242050Z AUTO 23007KT 9999 NCD 08/06 Q1004
Notes:

Financial History
Total Freight: 67,846lbs
Average Load: 67,846lbs/flt
Fuel Used: 10,912lbs
Avg. Fuel Used: 10,912lbs/flt
Fuel Expense: $3,383
Avg. Fuel Expense: $3,383
Avg. Fuel Cost: $0.31/lbs
Total Gross Income: $140,034
Pilot Pay: $259
Total Expenses: $17,659
Total Revenue: $118,842
Average Revenue: $140,034.14